x

La Perouse Bank (46206) Wave Buoy

7:00pm - Fri 23rd Feb 2018 All times are PST. -8 hours from GMT.

  • Sig Wave height 8.9ft
  • Peak Period 8s
  • Wind
    20mph, 27mph gusts
  • Sea Temp 47°f
  • Air Temp 45°f
  • Sea Pressure 1018.6mb
  • La Perouse Bank
  • La Perouse Bank

More Historic Weather Station data

Upgrade to MSW Pro to gain access to the past 30 days of data for over 8000 Wavebouys and Weather Stations around the globe.

Join

Comparision Forecast

View Surf forecast
   
Fri 02/23 7:00pm 9ft 8s 20 27 mph 1018.6mb 47f 45f
6:00pm 8.5ft 8s 16 20 mph 1019.3mb 47f 44f
5:00pm 9ft 8s 22 29 mph 1019.5mb 47f 44f
4:00pm 8ft 7s 20 25 mph 1020.3mb 47f 45f
3:00pm 8ft 7s 22 27 mph 1020.3mb 47f 46f
2:00pm 7.5ft 14s 20 25 mph 1020.5mb 47f 46f
1:00pm 7ft 15s 27 34 mph 1020.7mb 47f 46f
12:00pm 7ft 14s 22 29 mph 1021.2mb 47f 46f
11:00am 6.5ft 15s 22 27 mph 1021.9mb 47f 45f
10:00am 6ft 15s 22 31 mph 1022.8mb 47f 44f
9:00am 5.5ft 15s 22 25 mph 1023.7mb 47f 44f
8:00am 5.5ft 16s 18 22 mph 1024.5mb 47f 44f
7:00am 5.5ft 16s 16 20 mph 1025.4mb 47f 43f
6:00am 6ft 16s 13 18 mph 1026.5mb 47f 44f
5:00am 6ft 14s 9 11 mph 1027.4mb 47f 44f
4:00am 5.5ft 16s 9 11 mph 1028.2mb 47f 44f
3:00am 5.5ft 14s 9 11 mph 1029.1mb 47f 44f
2:00am 5.5ft 16s 7 9 mph 1029.5mb 47f 43f
1:00am 6ft 15s 7 9 mph 1030mb 47f 43f
12:00am 5.5ft 16s 7 9 mph 1030.4mb 47f 42f
Thu 02/22 11:00pm 5ft 15s 7 9 mph 1030.6mb 47f 42f
10:00pm 5.5ft 16s 7 9 mph 1030.5mb 47f 42f
9:00pm 5.5ft 17s 2 4 mph 1030.4mb 47f 42f
8:00pm 5.5ft 16s 2 4 mph 1030.1mb 47f 42f
7:00pm 5ft 17s 2 4 mph 1029.8mb 47f 41f
6:00pm 5ft 17s  -  2 mph 1029.5mb 47f 41f
5:00pm 5.5ft 17s  -  2 mph 1029.3mb 47f 44f
4:00pm 5ft 17s 2 4 mph 1029.3mb 47f 43f
3:00pm 5ft 8s 2 7 mph 1029mb 48f 42f
2:00pm 5.5ft 8s 2 4 mph 1029mb 48f 42f
1:00pm 5ft 9s 2 7 mph 1029mb 47f 42f
12:00pm 5ft 8s 2 4 mph 1029.1mb 47f 41f
11:00am 5ft 8s 4 7 mph 1029.1mb 47f 41f
10:00am 5.5ft 8s 4 7 mph 1028.7mb 47f 41f
9:00am 6ft 8s 7 9 mph 1028.1mb 47f 40f
8:00am 5.5ft 8s 7 9 mph 1027.6mb 47f 41f
7:00am 6.5ft 10s 7 9 mph 1027.2mb 47f 40f
6:00am 6ft 9s 2 7 mph 1026.4mb 46f 39f
Tue 02/20 6:00am 4.5ft 16s 18 22 mph 1020.3mb 47f 37f
5:00am 4.5ft 16s 20 22 mph 1020.2mb 47f 37f